< Typhoon 200410 2004 Season Typhoon 200412 >
Typhoon 200411 (MALOU)
General InformationTrack Information on Google MapsDetailed Wind InformationAccess Analytics MapList of All Images || NewsDisaster Info.WeblogTrackbackTyphoon FrontResourceGoogle EarthGE AnimationAtom FeedGeoJSON
Detalied Best Track (Time Zone = UTC)
Year Month Day Hour Lat. Long. Pressure (hPa) Wind (kt) Class Image Chart
2004 8 2 00 22.5 148.7 1002 0 2 Image Chart
2004 8 2 06 22.9 147.8 1002 0 2 Image Chart
2004 8 2 12 23.2 147.2 1002 0 2 Image Chart
2004 8 2 18 23.7 145.7 1002 0 2 Image Chart
2004 8 3 00 24.7 144.4 1002 0 2 Image Chart
2004 8 3 06 25.5 142.8 1000 0 2 Image Chart
2004 8 3 12 26.5 141.3 1000 0 2 Image Chart
2004 8 3 18 28.1 139.3 1000 0 2 Image Chart
2004 8 4 00 29.9 137.6 998 35 3 Image Chart
2004 8 4 03 30.9 136.9 996 40 3 Image Chart
2004 8 4 06 32.0 136.0 996 40 3 Image Chart
2004 8 4 09 32.6 135.5 996 40 3 Image Chart
2004 8 4 12 33.4 134.8 996 40 3 Image Chart
2004 8 4 13 33.6 134.7 996 40 3 Image Chart
2004 8 4 15 34.5 134.5 998 35 3 Image Chart
2004 8 4 16 34.8 134.4 998 35 3 Image Chart
2004 8 4 18 35.7 134.5 1000 35 3 Image Chart
2004 8 4 21 36.5 134.7 1002 0 2 Image Chart
2004 8 5 00 37.3 134.8 1004 0 2 Image Chart
2004 8 5 06 38.3 135.4 1006 0 2 Image Chart
2004 8 5 12 39.2 137.1 1008 0 2 Image Chart
2004 8 5 18 39.8 138.8 1008 0 2 Image Chart
2004 8 6 00 40.2 140.3 1010 0 2 Image Chart
2004 8 6 06 40.4 142.0 1010 0 2 Image Chart
2004 8 6 12 41.1 143.3 1010 0 2 Image Chart
Japan Meteorological Agency Best Track Data | Correction Date : 2006-01-18
< Typhoon 200410 2004 Season Typhoon 200412 >

Help